sensor_id;sensor_type;location;lat;lon;timestamp;pressure;altitude;pressure_sealevel;temperature;humidity
42601;BME280;28229;48.856;9.088;2023-04-01T00:00:31;96582.94;;;7.53;89.41
42601;BME280;28229;48.856;9.088;2023-04-01T00:02:57;96593.41;;;7.53;88.71
42601;BME280;28229;48.856;9.088;2023-04-01T00:05:23;96587.06;;;7.49;89.02
42601;BME280;28229;48.856;9.088;2023-04-01T00:07:53;96581.34;;;7.52;88.50
42601;BME280;28229;48.856;9.088;2023-04-01T00:10:19;96582.50;;;7.56;88.51
42601;BME280;28229;48.856;9.088;2023-04-01T00:12:45;96580.78;;;7.61;87.52
42601;BME280;28229;48.856;9.088;2023-04-01T00:15:11;96582.91;;;7.65;87.66
42601;BME280;28229;48.856;9.088;2023-04-01T00:17:38;96590.31;;;7.68;87.28
42601;BME280;28229;48.856;9.088;2023-04-01T00:20:05;96588.25;;;7.70;87.52
42601;BME280;28229;48.856;9.088;2023-04-01T00:22:31;96585.28;;;7.78;87.22
42601;BME280;28229;48.856;9.088;2023-04-01T00:24:57;96578.44;;;7.77;87.55
42601;BME280;28229;48.856;9.088;2023-04-01T00:27:29;96586.88;;;7.79;87.57
42601;BME280;28229;48.856;9.088;2023-04-01T00:29:56;96585.50;;;7.76;87.01
42601;BME280;28229;48.856;9.088;2023-04-01T00:32:22;96580.50;;;7.75;87.12
42601;BME280;28229;48.856;9.088;2023-04-01T00:34:52;96591.41;;;7.72;87.52
42601;BME280;28229;48.856;9.088;2023-04-01T00:37:20;96580.38;;;7.70;87.57
42601;BME280;28229;48.856;9.088;2023-04-01T00:39:47;96594.13;;;7.77;87.42
42601;BME280;28229;48.856;9.088;2023-04-01T00:42:13;96592.13;;;7.67;87.56
42601;BME280;28229;48.856;9.088;2023-04-01T00:44:40;96597.69;;;7.71;87.49
42601;BME280;28229;48.856;9.088;2023-04-01T00:47:07;96596.59;;;7.67;87.71
42601;BME280;28229;48.856;9.088;2023-04-01T00:49:37;96597.13;;;7.69;87.80
42601;BME280;28229;48.856;9.088;2023-04-01T00:52:05;96589.84;;;7.71;88.11
42601;BME280;28229;48.856;9.088;2023-04-01T00:54:34;96588.91;;;7.77;87.73
42601;BME280;28229;48.856;9.088;2023-04-01T00:57:21;96589.41;;;7.74;88.09
42601;BME280;28229;48.856;9.088;2023-04-01T00:59:50;96583.66;;;7.77;87.71
42601;BME280;28229;48.856;9.088;2023-04-01T01:02:18;96589.50;;;7.79;88.02
42601;BME280;28229;48.856;9.088;2023-04-01T01:04:45;96588.44;;;7.80;88.29
42601;BME280;28229;48.856;9.088;2023-04-01T01:07:28;96597.25;;;7.74;88.51
42601;BME280;28229;48.856;9.088;2023-04-01T01:15:33;96582.09;;;7.76;88.91
42601;BME280;28229;48.856;9.088;2023-04-01T01:18:18;96593.81;;;7.73;89.17
42601;BME280;28229;48.856;9.088;2023-04-01T01:29:08;96585.84;;;7.68;90.05
42601;BME280;28229;48.856;9.088;2023-04-01T01:32:32;96588.25;;;7.70;90.08
42601;BME280;28229;48.856;9.088;2023-04-01T01:37:43;96590.06;;;7.69;89.81
42601;BME280;28229;48.856;9.088;2023-04-01T01:40:12;96590.19;;;7.74;89.26
42601;BME280;28229;48.856;9.088;2023-04-01T01:42:44;96587.00;;;7.72;89.71
42601;BME280;28229;48.856;9.088;2023-04-01T01:45:14;96592.56;;;7.76;89.10
42601;BME280;28229;48.856;9.088;2023-04-01T01:47:45;96588.44;;;7.80;89.01
42601;BME280;28229;48.856;9.088;2023-04-01T01:50:13;96598.59;;;7.76;89.58
42601;BME280;28229;48.856;9.088;2023-04-01T01:52:40;96595.09;;;7.71;90.68
42601;BME280;28229;48.856;9.088;2023-04-01T01:55:26;96596.66;;;7.72;90.71
42601;BME280;28229;48.856;9.088;2023-04-01T01:57:56;96600.41;;;7.76;90.37
42601;BME280;28229;48.856;9.088;2023-04-01T02:00:25;96599.28;;;7.72;91.05
42601;BME280;28229;48.856;9.088;2023-04-01T02:02:52;96595.09;;;7.71;91.25
42601;BME280;28229;48.856;9.088;2023-04-01T02:05:22;96588.72;;;7.67;91.66
42601;BME280;28229;48.856;9.088;2023-04-01T02:07:56;96590.31;;;7.68;91.84
42601;BME280;28229;48.856;9.088;2023-04-01T02:10:26;96595.53;;;7.68;92.06
42601;BME280;28229;48.856;9.088;2023-04-01T02:12:58;96587.56;;;7.62;92.11
42601;BME280;28229;48.856;9.088;2023-04-01T02:15:27;96596.00;;;7.65;92.47
42601;BME280;28229;48.856;9.088;2023-04-01T02:17:57;96590.69;;;7.59;92.49
42601;BME280;28229;48.856;9.088;2023-04-01T02:20:24;96598.03;;;7.62;92.66
42601;BME280;28229;48.856;9.088;2023-04-01T02:22:53;96588.41;;;7.63;92.23
42601;BME280;28229;48.856;9.088;2023-04-01T02:25:24;96589.63;;;7.60;91.43
42601;BME280;28229;48.856;9.088;2023-04-01T02:27:52;96591.81;;;7.63;90.39
42601;BME280;28229;48.856;9.088;2023-04-01T02:30:19;96587.13;;;7.66;90.87
42601;BME280;28229;48.856;9.088;2023-04-01T02:32:47;96582.91;;;7.65;90.75
42601;BME280;28229;48.856;9.088;2023-04-01T02:35:16;96587.56;;;7.62;90.62
42601;BME280;28229;48.856;9.088;2023-04-01T02:37:43;96593.97;;;7.67;90.05
42601;BME280;28229;48.856;9.088;2023-04-01T02:40:15;96594.53;;;7.69;89.62
42601;BME280;28229;48.856;9.088;2023-04-01T02:42:42;96595.53;;;7.68;89.57
42601;BME280;28229;48.856;9.088;2023-04-01T02:45:08;96603.50;;;7.73;88.91
42601;BME280;28229;48.856;9.088;2023-04-01T02:47:35;96600.31;;;7.71;89.44
42601;BME280;28229;48.856;9.088;2023-04-01T02:50:02;96599.19;;;7.67;89.58
42601;BME280;28229;48.856;9.088;2023-04-01T02:52:29;96598.53;;;7.59;89.91
42601;BME280;28229;48.856;9.088;2023-04-01T02:54:59;96594.97;;;7.66;89.28
42601;BME280;28229;48.856;9.088;2023-04-01T02:57:25;96604.44;;;7.67;88.44
42601;BME280;28229;48.856;9.088;2023-04-01T02:59:51;96591.69;;;7.58;88.65
42601;BME280;28229;48.856;9.088;2023-04-01T03:02:18;96595.81;;;7.54;89.17
42601;BME280;28229;48.856;9.088;2023-04-01T03:04:44;96592.16;;;7.55;88.64
42601;BME280;28229;48.856;9.088;2023-04-01T03:07:10;96598.41;;;7.54;88.36
42601;BME280;28229;48.856;9.088;2023-04-01T03:09:38;96596.47;;;7.61;87.33
42601;BME280;28229;48.856;9.088;2023-04-01T03:12:04;96607.84;;;7.55;87.86
42601;BME280;28229;48.856;9.088;2023-04-01T03:14:38;96608.53;;;7.62;86.72
42601;BME280;28229;48.856;9.088;2023-04-01T03:17:04;96602.16;;;7.58;86.29
42601;BME280;28229;48.856;9.088;2023-04-01T03:19:32;96604.78;;;7.58;85.93
42601;BME280;28229;48.856;9.088;2023-04-01T03:22:00;96602.06;;;7.53;85.73
42601;BME280;28229;48.856;9.088;2023-04-01T03:24:26;96596.25;;;7.51;86.35
42601;BME280;28229;48.856;9.088;2023-04-01T03:26:52;96596.25;;;7.51;86.52
42601;BME280;28229;48.856;9.088;2023-04-01T03:29:19;96594.66;;;7.50;86.87
42601;BME280;28229;48.856;9.088;2023-04-01T03:31:45;96597.28;;;7.50;86.67
42601;BME280;28229;48.856;9.088;2023-04-01T03:34:11;96598.31;;;7.49;86.40
42601;BME280;28229;48.856;9.088;2023-04-01T03:36:37;96596.72;;;7.48;86.59
42601;BME280;28229;48.856;9.088;2023-04-01T03:39:04;96590.47;;;7.49;86.52
42601;BME280;28229;48.856;9.088;2023-04-01T03:41:39;96595.91;;;7.48;86.81
42601;BME280;28229;48.856;9.088;2023-04-01T03:44:05;96592.28;;;7.49;85.92
42601;BME280;28229;48.856;9.088;2023-04-01T03:46:32;96590.69;;;7.48;85.78
42601;BME280;28229;48.856;9.088;2023-04-01T03:48:58;96584.66;;;7.47;85.66
42601;BME280;28229;48.856;9.088;2023-04-01T03:51:27;96581.50;;;7.45;85.34
42601;BME280;28229;48.856;9.088;2023-04-01T03:53:53;96590.56;;;7.42;85.58
42601;BME280;28229;48.856;9.088;2023-04-01T03:56:19;96583.41;;;7.38;85.49
42601;BME280;28229;48.856;9.088;2023-04-01T03:58:46;96584.00;;;7.40;85.53
42601;BME280;28229;48.856;9.088;2023-04-01T04:01:19;96586.84;;;7.38;85.62
42601;BME280;28229;48.856;9.088;2023-04-01T04:03:48;96575.56;;;7.38;84.65
42601;BME280;28229;48.856;9.088;2023-04-01T04:06:17;96582.41;;;7.39;84.07
42601;BME280;28229;48.856;9.088;2023-04-01T04:08:44;96571.13;;;7.38;84.28
42601;BME280;28229;48.856;9.088;2023-04-01T04:11:11;96572.94;;;7.38;84.16
42601;BME280;28229;48.856;9.088;2023-04-01T04:13:42;96574.78;;;7.37;84.23
42601;BME280;28229;48.856;9.088;2023-04-01T04:16:09;96567.63;;;7.33;84.19
42601;BME280;28229;48.856;9.088;2023-04-01T04:18:39;96575.09;;;7.41;84.06
42601;BME280;28229;48.856;9.088;2023-04-01T04:21:05;96565.00;;;7.33;84.48
42601;BME280;28229;48.856;9.088;2023-04-01T04:23:32;96566.69;;;7.39;84.31
42601;BME280;28229;48.856;9.088;2023-04-01T04:26:05;96565.91;;;7.38;84.09
42601;BME280;28229;48.856;9.088;2023-04-01T04:28:33;96562.03;;;7.41;83.85
42601;BME280;28229;48.856;9.088;2023-04-01T04:31:00;96560.78;;;7.32;84.41
42601;BME280;28229;48.856;9.088;2023-04-01T04:33:27;96565.25;;;7.31;84.23
42601;BME280;28229;48.856;9.088;2023-04-01T04:35:58;96564.09;;;7.27;84.40
42601;BME280;28229;48.856;9.088;2023-04-01T04:38:25;96562.50;;;7.26;85.11
42601;BME280;28229;48.856;9.088;2023-04-01T04:40:52;96560.13;;;7.24;84.83
42601;BME280;28229;48.856;9.088;2023-04-01T04:43:18;96563.66;;;7.18;85.42
42601;BME280;28229;48.856;9.088;2023-04-01T04:45:45;96550.09;;;7.21;84.87
42601;BME280;28229;48.856;9.088;2023-04-01T04:48:13;96557.84;;;7.16;85.10
42601;BME280;28229;48.856;9.088;2023-04-01T04:50:48;96558.78;;;7.22;84.88
42601;BME280;28229;48.856;9.088;2023-04-01T04:53:18;96571.03;;;7.21;84.85
42601;BME280;28229;48.856;9.088;2023-04-01T04:55:49;96576.75;;;7.18;84.95
42601;BME280;28229;48.856;9.088;2023-04-01T04:58:39;96557.38;;;7.19;84.64
42601;BME280;28229;48.856;9.088;2023-04-01T05:01:13;96562.28;;;7.16;85.00
42601;BME280;28229;48.856;9.088;2023-04-01T05:03:40;96557.84;;;7.16;84.87
42601;BME280;28229;48.856;9.088;2023-04-01T05:06:07;96558.19;;;7.20;84.47
42601;BME280;28229;48.856;9.088;2023-04-01T05:08:34;96559.00;;;7.20;84.80
42601;BME280;28229;48.856;9.088;2023-04-01T05:11:02;96553.75;;;7.20;85.11
42601;BME280;28229;48.856;9.088;2023-04-01T05:13:29;96567.84;;;7.19;85.14
42601;BME280;28229;48.856;9.088;2023-04-01T05:15:56;96553.75;;;7.20;84.80
42601;BME280;28229;48.856;9.088;2023-04-01T05:18:22;96555.69;;;7.25;84.88
42601;BME280;28229;48.856;9.088;2023-04-01T05:20:50;96560.13;;;7.24;84.96
42601;BME280;28229;48.856;9.088;2023-04-01T05:23:17;96553.75;;;7.20;85.20
42601;BME280;28229;48.856;9.088;2023-04-01T05:25:45;96554.56;;;7.21;85.28
42601;BME280;28229;48.856;9.088;2023-04-01T05:28:11;96566.84;;;7.20;85.97
42601;BME280;28229;48.856;9.088;2023-04-01T05:30:42;96559.78;;;7.21;86.58
42601;BME280;28229;48.856;9.088;2023-04-01T05:33:27;96556.28;;;7.15;87.20
42601;BME280;28229;48.856;9.088;2023-04-01T05:35:54;96559.91;;;7.14;87.59
42601;BME280;28229;48.856;9.088;2023-04-01T05:38:20;96546.47;;;7.11;88.14
42601;BME280;28229;48.856;9.088;2023-04-01T05:40:47;96542.28;;;7.10;87.94
42601;BME280;28229;48.856;9.088;2023-04-01T05:43:13;96543.63;;;7.12;88.01
42601;BME280;28229;48.856;9.088;2023-04-01T05:45:40;96536.91;;;7.16;87.28
42601;BME280;28229;48.856;9.088;2023-04-01T05:48:12;96536.13;;;7.16;87.83
42601;BME280;28229;48.856;9.088;2023-04-01T05:50:40;96540.13;;;7.18;87.67
42601;BME280;28229;48.856;9.088;2023-04-01T05:53:08;96530.00;;;7.22;87.40
42601;BME280;28229;48.856;9.088;2023-04-01T05:55:36;96522.22;;;7.27;86.77
42601;BME280;28229;48.856;9.088;2023-04-01T05:58:03;96523.94;;;7.33;86.51
42601;BME280;28229;48.856;9.088;2023-04-01T06:00:30;96517.66;;;7.34;85.77
42601;BME280;28229;48.856;9.088;2023-04-01T06:02:59;96523.81;;;7.40;84.70
42601;BME280;28229;48.856;9.088;2023-04-01T06:05:43;96527.09;;;7.47;83.90
42601;BME280;28229;48.856;9.088;2023-04-01T06:08:13;96523.09;;;7.56;82.23
42601;BME280;28229;48.856;9.088;2023-04-01T06:38:34;96533.66;;;8.19;78.80
42601;BME280;28229;48.856;9.088;2023-04-01T06:41:25;96528.78;;;8.11;79.22
42601;BME280;28229;48.856;9.088;2023-04-01T06:44:20;96529.03;;;8.09;79.93
42601;BME280;28229;48.856;9.088;2023-04-01T06:54:17;96531.78;;;8.03;81.91
42601;BME280;28229;48.856;9.088;2023-04-01T06:57:35;96541.09;;;8.10;81.91
42601;BME280;28229;48.856;9.088;2023-04-01T07:00:14;96547.84;;;8.06;82.74
42601;BME280;28229;48.856;9.088;2023-04-01T07:02:54;96533.47;;;8.09;83.07
42601;BME280;28229;48.856;9.088;2023-04-01T07:05:24;96542.81;;;8.05;82.24
42601;BME280;28229;48.856;9.088;2023-04-01T07:07:58;96540.06;;;8.11;83.57
42601;BME280;28229;48.856;9.088;2023-04-01T07:10:34;96541.22;;;8.04;83.63
42601;BME280;28229;48.856;9.088;2023-04-01T07:13:32;96543.75;;;7.98;83.83
42601;BME280;28229;48.856;9.088;2023-04-01T07:16:26;96537.59;;;8.05;84.34
42601;BME280;28229;48.856;9.088;2023-04-01T07:19:03;96532.13;;;8.06;84.74
42601;BME280;28229;48.856;9.088;2023-04-01T07:21:55;96548.63;;;8.07;83.84
42601;BME280;28229;48.856;9.088;2023-04-01T07:24:34;96562.19;;;8.04;83.68
42601;BME280;28229;48.856;9.088;2023-04-01T07:27:09;96552.19;;;8.00;83.50
42601;BME280;28229;48.856;9.088;2023-04-01T07:29:38;96551.88;;;7.97;83.31
42601;BME280;28229;48.856;9.088;2023-04-01T07:35:36;96548.75;;;8.00;84.32
42601;BME280;28229;48.856;9.088;2023-04-01T07:38:30;96554.22;;;7.98;84.29
42601;BME280;28229;48.856;9.088;2023-04-01T07:41:51;96565.28;;;8.00;84.50
42601;BME280;28229;48.856;9.088;2023-04-01T07:44:33;96562.75;;;8.06;84.41
42601;BME280;28229;48.856;9.088;2023-04-01T08:04:42;96574.28;;;8.22;84.40
42601;BME280;28229;48.856;9.088;2023-04-01T08:07:33;96570.50;;;8.29;84.82
42601;BME280;28229;48.856;9.088;2023-04-01T08:10:26;96564.44;;;8.29;84.98
42601;BME280;28229;48.856;9.088;2023-04-01T08:13:33;96572.97;;;8.36;85.83
42601;BME280;28229;48.856;9.088;2023-04-01T08:16:26;96570.22;;;8.43;85.67
42601;BME280;28229;48.856;9.088;2023-04-01T08:21:51;96575.66;;;8.41;86.33
42601;BME280;28229;48.856;9.088;2023-04-01T08:24:27;96581.53;;;8.43;85.25
42601;BME280;28229;48.856;9.088;2023-04-01T08:26:59;96579.78;;;8.49;85.29
42601;BME280;28229;48.856;9.088;2023-04-01T08:29:38;96580.25;;;8.46;86.18
42601;BME280;28229;48.856;9.088;2023-04-01T08:32:11;96575.31;;;8.49;86.59
42601;BME280;28229;48.856;9.088;2023-04-01T08:34:42;96589.94;;;8.45;88.57
42601;BME280;28229;48.856;9.088;2023-04-01T08:37:24;96595.28;;;8.38;88.51
42601;BME280;28229;48.856;9.088;2023-04-01T08:40:02;96582.78;;;8.29;89.85
42601;BME280;28229;48.856;9.088;2023-04-01T08:45:24;96579.03;;;8.08;91.32
42601;BME280;28229;48.856;9.088;2023-04-01T08:56:23;96572.00;;;7.96;92.61
42601;BME280;28229;48.856;9.088;2023-04-01T08:59:16;96568.16;;;7.87;92.67
42601;BME280;28229;48.856;9.088;2023-04-01T09:14:37;96570.72;;;8.28;91.25
42601;BME280;28229;48.856;9.088;2023-04-01T09:20:26;96581.13;;;8.51;90.97
42601;BME280;28229;48.856;9.088;2023-04-01T09:23:15;96593.03;;;8.59;86.59
42601;BME280;28229;48.856;9.088;2023-04-01T09:26:29;96583.13;;;8.78;88.08
42601;BME280;28229;48.856;9.088;2023-04-01T09:31:23;96582.53;;;8.93;86.98
42601;BME280;28229;48.856;9.088;2023-04-01T09:40:17;96581.88;;;8.81;84.77
42601;BME280;28229;48.856;9.088;2023-04-01T09:43:06;96586.28;;;8.80;84.41
42601;BME280;28229;48.856;9.088;2023-04-01T09:45:52;96603.84;;;8.80;84.54
42601;BME280;28229;48.856;9.088;2023-04-01T09:54:32;96597.00;;;8.79;81.56
42601;BME280;28229;48.856;9.088;2023-04-01T09:57:37;96594.00;;;8.87;81.81
42601;BME280;28229;48.856;9.088;2023-04-01T10:11:59;96607.44;;;9.07;81.86
42601;BME280;28229;48.856;9.088;2023-04-01T10:19:59;96610.75;;;9.20;80.45
42601;BME280;28229;48.856;9.088;2023-04-01T10:34:20;96613.56;;;9.13;80.81
42601;BME280;28229;48.856;9.088;2023-04-01T10:45:58;96611.41;;;8.93;79.45
42601;BME280;28229;48.856;9.088;2023-04-01T10:51:36;96616.81;;;9.03;78.63
42601;BME280;28229;48.856;9.088;2023-04-01T10:57:25;96607.56;;;9.18;77.76
42601;BME280;28229;48.856;9.088;2023-04-01T11:30:22;96637.41;;;9.89;72.96
42601;BME280;28229;48.856;9.088;2023-04-01T11:33:03;96624.88;;;9.97;73.55
42601;BME280;28229;48.856;9.088;2023-04-01T11:38:31;96640.97;;;10.00;72.72
42601;BME280;28229;48.856;9.088;2023-04-01T11:41:42;96637.19;;;9.91;72.54
42601;BME280;28229;48.856;9.088;2023-04-01T11:44:40;96638.09;;;10.02;74.53
42601;BME280;28229;48.856;9.088;2023-04-01T11:47:26;96634.41;;;10.03;72.26
42601;BME280;28229;48.856;9.088;2023-04-01T12:10:19;96646.72;;;9.80;73.71
42601;BME280;28229;48.856;9.088;2023-04-01T12:18:25;96648.94;;;9.88;72.90
42601;BME280;28229;48.856;9.088;2023-04-01T12:21:09;96650.03;;;9.93;72.55
42601;BME280;28229;48.856;9.088;2023-04-01T12:24:01;96651.63;;;9.94;72.80
42601;BME280;28229;48.856;9.088;2023-04-01T12:27:11;96654.34;;;9.99;73.52
42601;BME280;28229;48.856;9.088;2023-04-01T12:35:43;96656.69;;;10.22;72.21
42601;BME280;28229;48.856;9.088;2023-04-01T12:47:00;96669.63;;;10.02;69.29
42601;BME280;28229;48.856;9.088;2023-04-01T12:53:10;96662.75;;;10.01;70.71
42601;BME280;28229;48.856;9.088;2023-04-01T12:55:44;96661.78;;;10.07;70.73
42601;BME280;28229;48.856;9.088;2023-04-01T13:06:27;96676.88;;;10.17;70.92
42601;BME280;28229;48.856;9.088;2023-04-01T13:19:37;96699.78;;;9.77;71.87
42601;BME280;28229;48.856;9.088;2023-04-01T13:22:07;96686.72;;;9.82;72.58
42601;BME280;28229;48.856;9.088;2023-04-01T13:24:40;96690.03;;;9.95;73.73
42601;BME280;28229;48.856;9.088;2023-04-01T13:32:49;96687.09;;;10.13;71.48
42601;BME280;28229;48.856;9.088;2023-04-01T13:35:23;96699.38;;;10.07;72.30
42601;BME280;28229;48.856;9.088;2023-04-01T13:41:06;96698.22;;;10.20;72.37
42601;BME280;28229;48.856;9.088;2023-04-01T13:43:42;96701.13;;;10.24;71.08
42601;BME280;28229;48.856;9.088;2023-04-01T13:46:34;96711.00;;;10.34;72.75
42601;BME280;28229;48.856;9.088;2023-04-01T13:49:10;96706.47;;;10.29;72.06
42601;BME280;28229;48.856;9.088;2023-04-01T13:58:23;96716.03;;;9.96;72.75
42601;BME280;28229;48.856;9.088;2023-04-01T14:00:54;96724.22;;;10.00;72.01
42601;BME280;28229;48.856;9.088;2023-04-01T14:03:58;96716.47;;;10.10;72.42
42601;BME280;28229;48.856;9.088;2023-04-01T14:15:25;96726.09;;;9.82;71.30
42601;BME280;28229;48.856;9.088;2023-04-01T14:18:16;96719.81;;;9.83;72.87
42601;BME280;28229;48.856;9.088;2023-04-01T14:26:24;96724.16;;;9.56;74.10
42601;BME280;28229;48.856;9.088;2023-04-01T14:32:11;96735.19;;;9.41;74.42
42601;BME280;28229;48.856;9.088;2023-04-01T14:34:53;96730.13;;;9.34;73.88
42601;BME280;28229;48.856;9.088;2023-04-01T14:37:59;96730.13;;;9.34;74.41
42601;BME280;28229;48.856;9.088;2023-04-01T14:43:20;96735.38;;;9.34;76.81
42601;BME280;28229;48.856;9.088;2023-04-01T14:45:59;96737.50;;;9.37;77.07
42601;BME280;28229;48.856;9.088;2023-04-01T14:48:53;96732.81;;;9.39;77.57
42601;BME280;28229;48.856;9.088;2023-04-01T14:54:06;96733.44;;;9.46;78.23
42601;BME280;28229;48.856;9.088;2023-04-01T14:56:43;96742.78;;;9.54;77.87
42601;BME280;28229;48.856;9.088;2023-04-01T14:59:15;96732.50;;;9.52;75.76
42601;BME280;28229;48.856;9.088;2023-04-01T15:04:33;96740.94;;;9.55;76.00
42601;BME280;28229;48.856;9.088;2023-04-01T15:13:03;96742.03;;;9.59;77.13
42601;BME280;28229;48.856;9.088;2023-04-01T15:16:10;96739.16;;;9.60;77.25
42601;BME280;28229;48.856;9.088;2023-04-01T15:18:53;96743.72;;;9.65;78.54
42601;BME280;28229;48.856;9.088;2023-04-01T15:29:43;96746.94;;;9.89;77.80
42601;BME280;28229;48.856;9.088;2023-04-01T15:32:39;96751.94;;;9.90;76.44
42601;BME280;28229;48.856;9.088;2023-04-01T15:41:21;96763.91;;;9.81;74.32
42601;BME280;28229;48.856;9.088;2023-04-01T15:43:49;96768.13;;;9.82;74.83
42601;BME280;28229;48.856;9.088;2023-04-01T15:46:36;96769.72;;;9.83;74.95
42601;BME280;28229;48.856;9.088;2023-04-01T15:57:23;96775.94;;;9.77;74.35
42601;BME280;28229;48.856;9.088;2023-04-01T16:00:19;96774.50;;;9.69;74.02
42601;BME280;28229;48.856;9.088;2023-04-01T16:05:41;96788.91;;;9.67;73.60
42601;BME280;28229;48.856;9.088;2023-04-01T16:22:09;96795.59;;;9.58;73.39
42601;BME280;28229;48.856;9.088;2023-04-01T16:24:46;96789.53;;;9.57;73.11
42601;BME280;28229;48.856;9.088;2023-04-01T16:27:33;96799.25;;;9.57;73.64
42601;BME280;28229;48.856;9.088;2023-04-01T16:33:05;96799.47;;;9.55;73.61
42601;BME280;28229;48.856;9.088;2023-04-01T16:35:46;96800.84;;;9.58;73.29
42601;BME280;28229;48.856;9.088;2023-04-01T16:38:21;96807.34;;;9.55;73.64
42601;BME280;28229;48.856;9.088;2023-04-01T16:41:11;96806.09;;;9.58;73.28
42601;BME280;28229;48.856;9.088;2023-04-01T16:43:48;96803.38;;;9.52;73.96
42601;BME280;28229;48.856;9.088;2023-04-01T16:46:26;96802.84;;;9.50;72.86
42601;BME280;28229;48.856;9.088;2023-04-01T16:56:54;96799.25;;;9.40;75.82
42601;BME280;28229;48.856;9.088;2023-04-01T16:59:26;96807.81;;;9.35;76.55
42601;BME280;28229;48.856;9.088;2023-04-01T17:02:02;96802.56;;;9.35;76.40
42601;BME280;28229;48.856;9.088;2023-04-01T17:04:32;96795.97;;;9.32;76.50
42601;BME280;28229;48.856;9.088;2023-04-01T17:20:32;96814.03;;;9.29;77.81
42601;BME280;28229;48.856;9.088;2023-04-01T17:29:13;96841.28;;;9.28;78.72
42601;BME280;28229;48.856;9.088;2023-04-01T17:32:05;96834.69;;;9.25;79.27
42601;BME280;28229;48.856;9.088;2023-04-01T17:35:01;96848.50;;;9.21;79.16
42601;BME280;28229;48.856;9.088;2023-04-01T17:37:57;96858.53;;;9.24;78.88
42601;BME280;28229;48.856;9.088;2023-04-01T17:46:10;96882.25;;;9.29;78.96
42601;BME280;28229;48.856;9.088;2023-04-01T17:51:43;96886.38;;;9.25;79.49
42601;BME280;28229;48.856;9.088;2023-04-01T17:57:34;96897.34;;;9.22;80.90
42601;BME280;28229;48.856;9.088;2023-04-01T18:08:43;96881.00;;;8.91;83.03
42601;BME280;28229;48.856;9.088;2023-04-01T18:14:31;96887.53;;;8.76;84.70
42601;BME280;28229;48.856;9.088;2023-04-01T18:17:17;96899.06;;;8.75;83.61
42601;BME280;28229;48.856;9.088;2023-04-01T18:20:01;96890.53;;;8.68;83.42
42601;BME280;28229;48.856;9.088;2023-04-01T18:22:52;96882.66;;;8.68;83.08
42601;BME280;28229;48.856;9.088;2023-04-01T18:25:41;96891.44;;;8.62;82.28
42601;BME280;28229;48.856;9.088;2023-04-01T18:28:42;96892.59;;;8.54;82.69
42601;BME280;28229;48.856;9.088;2023-04-01T18:31:19;96900.22;;;8.56;82.26
42601;BME280;28229;48.856;9.088;2023-04-01T18:36:43;96910.47;;;8.46;83.24
42601;BME280;28229;48.856;9.088;2023-04-01T18:42:03;96917.28;;;8.35;84.69
42601;BME280;28229;48.856;9.088;2023-04-01T18:44:50;96926.38;;;8.32;85.23
42601;BME280;28229;48.856;9.088;2023-04-01T18:47:41;96928.44;;;8.30;85.67
42601;BME280;28229;48.856;9.088;2023-04-01T18:53:57;96944.28;;;8.24;85.90
42601;BME280;28229;48.856;9.088;2023-04-01T18:56:33;96944.84;;;8.14;85.37
42601;BME280;28229;48.856;9.088;2023-04-01T19:04:10;96939.34;;;8.04;85.25
42601;BME280;28229;48.856;9.088;2023-04-01T19:06:48;96940.47;;;7.96;86.13
42601;BME280;28229;48.856;9.088;2023-04-01T19:09:32;96947.97;;;7.92;86.03
42601;BME280;28229;48.856;9.088;2023-04-01T19:18:08;96947.00;;;7.75;86.11
42601;BME280;28229;48.856;9.088;2023-04-01T19:20:51;96941.97;;;7.61;86.12
42601;BME280;28229;48.856;9.088;2023-04-01T19:24:12;96948.00;;;7.62;86.53
42601;BME280;28229;48.856;9.088;2023-04-01T19:26:42;96948.09;;;7.55;86.66
42601;BME280;28229;48.856;9.088;2023-04-01T19:29:21;96948.63;;;7.46;87.27
42601;BME280;28229;48.856;9.088;2023-04-01T19:42:41;96948.88;;;7.26;88.32
42601;BME280;28229;48.856;9.088;2023-04-01T19:47:50;96960.63;;;7.16;88.83
42601;BME280;28229;48.856;9.088;2023-04-01T19:50:43;96953.81;;;7.15;89.12
42601;BME280;28229;48.856;9.088;2023-04-01T19:53:31;96957.81;;;7.18;89.29
42601;BME280;28229;48.856;9.088;2023-04-01T19:56:12;96959.06;;;7.15;89.08
42601;BME280;28229;48.856;9.088;2023-04-01T19:59:04;96964.28;;;7.15;89.58
42601;BME280;28229;48.856;9.088;2023-04-01T20:01:53;96959.91;;;7.09;89.58
42601;BME280;28229;48.856;9.088;2023-04-01T20:04:30;96959.63;;;7.17;89.73
42601;BME280;28229;48.856;9.088;2023-04-01T20:15:22;96980.28;;;7.26;90.16
42601;BME280;28229;48.856;9.088;2023-04-01T20:17:51;96980.34;;;7.19;90.44
42601;BME280;28229;48.856;9.088;2023-04-01T20:20:21;96982.22;;;7.30;89.74
42601;BME280;28229;48.856;9.088;2023-04-01T20:23:01;96987.38;;;7.37;89.84
42601;BME280;28229;48.856;9.088;2023-04-01T20:25:46;96986.34;;;7.38;90.10
42601;BME280;28229;48.856;9.088;2023-04-01T20:33:41;96997.78;;;7.43;89.35
42601;BME280;28229;48.856;9.088;2023-04-01T20:36:25;97008.03;;;7.45;89.25
42601;BME280;28229;48.856;9.088;2023-04-01T20:41:49;97011.44;;;7.46;89.62
42601;BME280;28229;48.856;9.088;2023-04-01T20:44:47;97011.00;;;7.49;89.79
42601;BME280;28229;48.856;9.088;2023-04-01T20:53:07;97016.44;;;7.47;89.58
42601;BME280;28229;48.856;9.088;2023-04-01T21:06:06;97030.25;;;7.54;89.33
42601;BME280;28229;48.856;9.088;2023-04-01T21:17:32;97028.66;;;7.53;90.24
42601;BME280;28229;48.856;9.088;2023-04-01T21:22:48;97030.97;;;7.61;90.17
42601;BME280;28229;48.856;9.088;2023-04-01T21:25:24;97034.03;;;7.58;90.30
42601;BME280;28229;48.856;9.088;2023-04-01T21:28:33;97041.72;;;7.53;90.35
42601;BME280;28229;48.856;9.088;2023-04-01T21:33:54;97048.78;;;7.53;90.90
42601;BME280;28229;48.856;9.088;2023-04-01T21:36:40;97049.59;;;7.53;91.00
42601;BME280;28229;48.856;9.088;2023-04-01T21:53:00;97073.44;;;7.45;92.08
42601;BME280;28229;48.856;9.088;2023-04-01T22:13:06;97074.16;;;7.34;92.58
42601;BME280;28229;48.856;9.088;2023-04-01T22:18:33;97077.06;;;7.26;93.41
42601;BME280;28229;48.856;9.088;2023-04-01T22:21:14;97074.81;;;7.29;93.22
42601;BME280;28229;48.856;9.088;2023-04-01T22:26:32;97073.25;;;7.21;92.60
42601;BME280;28229;48.856;9.088;2023-04-01T22:29:20;97078.66;;;7.27;93.12
42601;BME280;28229;48.856;9.088;2023-04-01T22:32:42;97075.59;;;7.30;92.65